sensor_id;sensor_type;location;lat;lon;timestamp;P1;durP1;ratioP1;P2;durP2;ratioP2
46042;SDS011;32533;-33.854;18.542;2022-11-12T00:00:32;21.02;;;6.18;;
46042;SDS011;32533;-33.854;18.542;2022-11-12T00:02:59;15.55;;;6.50;;
46042;SDS011;32533;-33.854;18.542;2022-11-12T00:05:26;12.35;;;4.97;;
46042;SDS011;32533;-33.854;18.542;2022-11-12T00:08:14;15.57;;;5.90;;
46042;SDS011;32533;-33.854;18.542;2022-11-12T00:10:41;19.45;;;5.03;;
46042;SDS011;32533;-33.854;18.542;2022-11-12T00:13:07;29.58;;;5.78;;
46042;SDS011;32533;-33.854;18.542;2022-11-12T00:15:34;14.68;;;4.72;;
46042;SDS011;32533;-33.854;18.542;2022-11-12T00:18:00;17.45;;;5.80;;
46042;SDS011;32533;-33.854;18.542;2022-11-12T00:20:27;22.40;;;7.65;;
46042;SDS011;32533;-33.854;18.542;2022-11-12T00:22:54;17.55;;;6.43;;
46042;SDS011;32533;-33.854;18.542;2022-11-12T00:25:20;26.38;;;5.82;;
46042;SDS011;32533;-33.854;18.542;2022-11-12T00:27:47;20.20;;;5.25;;
46042;SDS011;32533;-33.854;18.542;2022-11-12T00:30:13;23.80;;;7.03;;
46042;SDS011;32533;-33.854;18.542;2022-11-12T00:32:40;22.98;;;7.32;;
46042;SDS011;32533;-33.854;18.542;2022-11-12T00:35:06;15.77;;;5.45;;
46042;SDS011;32533;-33.854;18.542;2022-11-12T00:37:33;15.60;;;6.13;;
46042;SDS011;32533;-33.854;18.542;2022-11-12T00:40:00;14.95;;;4.95;;
46042;SDS011;32533;-33.854;18.542;2022-11-12T00:42:26;13.00;;;4.68;;
46042;SDS011;32533;-33.854;18.542;2022-11-12T00:44:53;13.23;;;3.45;;
46042;SDS011;32533;-33.854;18.542;2022-11-12T00:47:19;14.80;;;3.92;;
46042;SDS011;32533;-33.854;18.542;2022-11-12T00:49:46;11.45;;;3.08;;
46042;SDS011;32533;-33.854;18.542;2022-11-12T00:52:12;10.55;;;3.35;;
46042;SDS011;32533;-33.854;18.542;2022-11-12T00:54:39;8.35;;;2.67;;
46042;SDS011;32533;-33.854;18.542;2022-11-12T00:57:05;13.55;;;3.78;;
46042;SDS011;32533;-33.854;18.542;2022-11-12T00:59:32;15.68;;;2.92;;
46042;SDS011;32533;-33.854;18.542;2022-11-12T01:01:58;20.98;;;5.35;;
46042;SDS011;32533;-33.854;18.542;2022-11-12T01:04:25;7.75;;;3.00;;
46042;SDS011;32533;-33.854;18.542;2022-11-12T01:06:51;16.55;;;4.18;;
46042;SDS011;32533;-33.854;18.542;2022-11-12T01:09:18;17.92;;;4.72;;
46042;SDS011;32533;-33.854;18.542;2022-11-12T01:11:44;10.23;;;3.85;;
46042;SDS011;32533;-33.854;18.542;2022-11-12T01:14:12;11.30;;;3.78;;
46042;SDS011;32533;-33.854;18.542;2022-11-12T01:16:39;19.15;;;3.97;;
46042;SDS011;32533;-33.854;18.542;2022-11-12T01:19:08;13.70;;;3.78;;
46042;SDS011;32533;-33.854;18.542;2022-11-12T01:21:37;13.32;;;3.60;;
46042;SDS011;32533;-33.854;18.542;2022-11-12T01:24:05;8.25;;;2.90;;
46042;SDS011;32533;-33.854;18.542;2022-11-12T01:26:33;11.18;;;3.80;;
46042;SDS011;32533;-33.854;18.542;2022-11-12T01:29:00;11.55;;;4.70;;
46042;SDS011;32533;-33.854;18.542;2022-11-12T01:31:28;13.70;;;3.20;;
46042;SDS011;32533;-33.854;18.542;2022-11-12T01:34:09;9.20;;;2.85;;
46042;SDS011;32533;-33.854;18.542;2022-11-12T01:36:54;14.82;;;4.03;;
46042;SDS011;32533;-33.854;18.542;2022-11-12T01:39:20;6.95;;;3.40;;
46042;SDS011;32533;-33.854;18.542;2022-11-12T01:41:47;11.18;;;3.03;;
46042;SDS011;32533;-33.854;18.542;2022-11-12T01:44:15;6.68;;;2.40;;
46042;SDS011;32533;-33.854;18.542;2022-11-12T01:49:46;11.18;;;2.75;;
46042;SDS011;32533;-33.854;18.542;2022-11-12T01:54:50;12.35;;;3.17;;
46042;SDS011;32533;-33.854;18.542;2022-11-12T01:57:22;9.90;;;3.15;;
46042;SDS011;32533;-33.854;18.542;2022-11-12T01:59:53;15.15;;;3.15;;
46042;SDS011;32533;-33.854;18.542;2022-11-12T02:02:25;11.88;;;3.45;;
46042;SDS011;32533;-33.854;18.542;2022-11-12T02:04:53;10.02;;;2.30;;
46042;SDS011;32533;-33.854;18.542;2022-11-12T02:07:21;7.10;;;2.83;;
46042;SDS011;32533;-33.854;18.542;2022-11-12T02:09:49;8.73;;;2.58;;
46042;SDS011;32533;-33.854;18.542;2022-11-12T02:12:16;6.43;;;2.45;;
46042;SDS011;32533;-33.854;18.542;2022-11-12T02:15:01;6.68;;;3.22;;
46042;SDS011;32533;-33.854;18.542;2022-11-12T02:17:28;8.40;;;2.20;;
46042;SDS011;32533;-33.854;18.542;2022-11-12T02:19:57;7.72;;;2.15;;
46042;SDS011;32533;-33.854;18.542;2022-11-12T02:22:25;10.23;;;3.20;;
46042;SDS011;32533;-33.854;18.542;2022-11-12T02:24:51;10.90;;;3.78;;
46042;SDS011;32533;-33.854;18.542;2022-11-12T02:27:18;9.00;;;2.25;;
46042;SDS011;32533;-33.854;18.542;2022-11-12T02:29:45;5.65;;;2.47;;
46042;SDS011;32533;-33.854;18.542;2022-11-12T02:32:12;8.25;;;2.17;;
46042;SDS011;32533;-33.854;18.542;2022-11-12T02:34:38;5.45;;;2.20;;
46042;SDS011;32533;-33.854;18.542;2022-11-12T02:37:06;6.65;;;1.55;;
46042;SDS011;32533;-33.854;18.542;2022-11-12T02:39:32;7.85;;;2.45;;
46042;SDS011;32533;-33.854;18.542;2022-11-12T02:41:59;15.40;;;4.57;;
46042;SDS011;32533;-33.854;18.542;2022-11-12T02:44:26;13.45;;;4.97;;
46042;SDS011;32533;-33.854;18.542;2022-11-12T02:46:53;21.90;;;3.92;;
46042;SDS011;32533;-33.854;18.542;2022-11-12T02:49:19;8.77;;;3.33;;
46042;SDS011;32533;-33.854;18.542;2022-11-12T02:51:45;12.50;;;3.03;;
46042;SDS011;32533;-33.854;18.542;2022-11-12T02:54:12;8.82;;;2.47;;
46042;SDS011;32533;-33.854;18.542;2022-11-12T02:56:38;4.88;;;2.10;;
46042;SDS011;32533;-33.854;18.542;2022-11-12T02:59:05;7.45;;;2.13;;
46042;SDS011;32533;-33.854;18.542;2022-11-12T03:01:31;11.57;;;2.15;;
46042;SDS011;32533;-33.854;18.542;2022-11-12T03:03:58;5.53;;;2.55;;
46042;SDS011;32533;-33.854;18.542;2022-11-12T03:06:25;10.50;;;2.80;;
46042;SDS011;32533;-33.854;18.542;2022-11-12T03:08:51;5.35;;;1.50;;
46042;SDS011;32533;-33.854;18.542;2022-11-12T03:11:18;14.32;;;2.47;;
46042;SDS011;32533;-33.854;18.542;2022-11-12T03:13:44;5.65;;;1.95;;
46042;SDS011;32533;-33.854;18.542;2022-11-12T03:16:11;5.65;;;1.80;;
46042;SDS011;32533;-33.854;18.542;2022-11-12T03:18:37;15.48;;;2.63;;
46042;SDS011;32533;-33.854;18.542;2022-11-12T03:21:04;15.02;;;5.90;;
46042;SDS011;32533;-33.854;18.542;2022-11-12T03:23:34;15.95;;;5.50;;
46042;SDS011;32533;-33.854;18.542;2022-11-12T03:26:01;7.95;;;3.38;;
46042;SDS011;32533;-33.854;18.542;2022-11-12T03:28:28;19.08;;;3.53;;
46042;SDS011;32533;-33.854;18.542;2022-11-12T03:30:56;24.58;;;3.65;;
46042;SDS011;32533;-33.854;18.542;2022-11-12T03:33:24;5.90;;;1.92;;
46042;SDS011;32533;-33.854;18.542;2022-11-12T03:35:54;7.75;;;2.53;;
46042;SDS011;32533;-33.854;18.542;2022-11-12T03:38:20;10.02;;;2.35;;
46042;SDS011;32533;-33.854;18.542;2022-11-12T03:40:48;5.28;;;1.60;;
46042;SDS011;32533;-33.854;18.542;2022-11-12T03:43:14;5.82;;;1.20;;
46042;SDS011;32533;-33.854;18.542;2022-11-12T03:45:40;9.50;;;3.53;;
46042;SDS011;32533;-33.854;18.542;2022-11-12T03:48:07;9.55;;;2.35;;
46042;SDS011;32533;-33.854;18.542;2022-11-12T03:50:33;14.38;;;8.60;;
46042;SDS011;32533;-33.854;18.542;2022-11-12T03:53:00;39.40;;;25.95;;
46042;SDS011;32533;-33.854;18.542;2022-11-12T03:55:27;32.90;;;23.08;;
46042;SDS011;32533;-33.854;18.542;2022-11-12T03:57:55;17.83;;;14.32;;
46042;SDS011;32533;-33.854;18.542;2022-11-12T04:00:23;16.95;;;9.32;;
46042;SDS011;32533;-33.854;18.542;2022-11-12T06:41:21;8.52;;;2.28;;
46042;SDS011;32533;-33.854;18.542;2022-11-12T06:43:48;14.60;;;2.78;;
46042;SDS011;32533;-33.854;18.542;2022-11-12T06:46:15;20.10;;;2.95;;
46042;SDS011;32533;-33.854;18.542;2022-11-12T06:48:42;20.23;;;4.82;;
46042;SDS011;32533;-33.854;18.542;2022-11-12T06:51:10;13.25;;;3.22;;
46042;SDS011;32533;-33.854;18.542;2022-11-12T06:53:41;19.45;;;2.40;;
46042;SDS011;32533;-33.854;18.542;2022-11-12T06:56:08;5.25;;;2.67;;
46042;SDS011;32533;-33.854;18.542;2022-11-12T06:58:35;10.27;;;3.05;;
46042;SDS011;32533;-33.854;18.542;2022-11-12T07:01:05;10.90;;;2.30;;
46042;SDS011;32533;-33.854;18.542;2022-11-12T07:03:37;10.23;;;3.40;;
46042;SDS011;32533;-33.854;18.542;2022-11-12T07:06:05;6.35;;;2.28;;
46042;SDS011;32533;-33.854;18.542;2022-11-12T07:08:42;9.30;;;2.42;;
46042;SDS011;32533;-33.854;18.542;2022-11-12T07:11:09;7.93;;;2.42;;
46042;SDS011;32533;-33.854;18.542;2022-11-12T07:13:36;9.48;;;3.15;;
46042;SDS011;32533;-33.854;18.542;2022-11-12T07:16:03;11.60;;;3.45;;
46042;SDS011;32533;-33.854;18.542;2022-11-12T07:21:54;6.25;;;2.78;;
46042;SDS011;32533;-33.854;18.542;2022-11-12T07:25:00;10.23;;;2.50;;
46042;SDS011;32533;-33.854;18.542;2022-11-12T07:28:07;7.47;;;2.25;;
46042;SDS011;32533;-33.854;18.542;2022-11-12T07:30:59;7.95;;;1.75;;
46042;SDS011;32533;-33.854;18.542;2022-11-12T07:33:27;7.22;;;1.67;;
46042;SDS011;32533;-33.854;18.542;2022-11-12T07:36:27;6.20;;;2.10;;
46042;SDS011;32533;-33.854;18.542;2022-11-12T07:38:49;7.85;;;2.58;;
46042;SDS011;32533;-33.854;18.542;2022-11-12T07:41:18;9.15;;;3.10;;
46042;SDS011;32533;-33.854;18.542;2022-11-12T07:43:46;6.38;;;2.08;;
46042;SDS011;32533;-33.854;18.542;2022-11-12T07:46:18;9.52;;;3.22;;
46042;SDS011;32533;-33.854;18.542;2022-11-12T07:48:46;5.82;;;2.08;;
46042;SDS011;32533;-33.854;18.542;2022-11-12T07:51:14;5.97;;;2.35;;
46042;SDS011;32533;-33.854;18.542;2022-11-12T07:53:54;6.70;;;2.10;;
46042;SDS011;32533;-33.854;18.542;2022-11-12T07:56:24;8.73;;;3.67;;
46042;SDS011;32533;-33.854;18.542;2022-11-12T07:58:52;5.20;;;3.28;;
46042;SDS011;32533;-33.854;18.542;2022-11-12T08:03:58;10.60;;;3.33;;
46042;SDS011;32533;-33.854;18.542;2022-11-12T08:06:26;13.93;;;7.30;;
46042;SDS011;32533;-33.854;18.542;2022-11-12T08:08:53;10.80;;;4.13;;
46042;SDS011;32533;-33.854;18.542;2022-11-12T08:11:21;8.57;;;2.92;;
46042;SDS011;32533;-33.854;18.542;2022-11-12T08:13:48;8.45;;;2.45;;
46042;SDS011;32533;-33.854;18.542;2022-11-12T08:16:15;10.35;;;2.95;;
46042;SDS011;32533;-33.854;18.542;2022-11-12T08:18:42;10.20;;;2.65;;
46042;SDS011;32533;-33.854;18.542;2022-11-12T08:21:11;8.93;;;3.22;;
46042;SDS011;32533;-33.854;18.542;2022-11-12T08:23:39;6.22;;;2.33;;
46042;SDS011;32533;-33.854;18.542;2022-11-12T08:26:07;12.20;;;2.92;;
46042;SDS011;32533;-33.854;18.542;2022-11-12T08:28:36;8.13;;;2.13;;
46042;SDS011;32533;-33.854;18.542;2022-11-12T08:31:04;24.08;;;3.70;;
46042;SDS011;32533;-33.854;18.542;2022-11-12T08:33:34;12.70;;;3.53;;
46042;SDS011;32533;-33.854;18.542;2022-11-12T08:36:04;9.77;;;1.90;;
46042;SDS011;32533;-33.854;18.542;2022-11-12T08:38:32;7.35;;;2.55;;
46042;SDS011;32533;-33.854;18.542;2022-11-12T08:41:00;10.65;;;2.42;;
46042;SDS011;32533;-33.854;18.542;2022-11-12T08:43:27;9.60;;;2.22;;
46042;SDS011;32533;-33.854;18.542;2022-11-12T08:45:56;6.60;;;2.80;;
46042;SDS011;32533;-33.854;18.542;2022-11-12T08:48:24;9.07;;;3.17;;
46042;SDS011;32533;-33.854;18.542;2022-11-12T08:50:51;10.13;;;2.40;;
46042;SDS011;32533;-33.854;18.542;2022-11-12T08:53:19;16.80;;;2.83;;
46042;SDS011;32533;-33.854;18.542;2022-11-12T08:55:47;6.05;;;2.15;;
46042;SDS011;32533;-33.854;18.542;2022-11-12T08:58:18;7.53;;;2.47;;
46042;SDS011;32533;-33.854;18.542;2022-11-12T09:00:45;13.52;;;2.55;;
46042;SDS011;32533;-33.854;18.542;2022-11-12T09:03:15;8.15;;;3.38;;
46042;SDS011;32533;-33.854;18.542;2022-11-12T09:05:44;9.77;;;2.50;;
46042;SDS011;32533;-33.854;18.542;2022-11-12T09:08:12;9.75;;;1.80;;
46042;SDS011;32533;-33.854;18.542;2022-11-12T09:10:40;8.25;;;3.38;;
46042;SDS011;32533;-33.854;18.542;2022-11-12T09:13:07;6.78;;;2.08;;
46042;SDS011;32533;-33.854;18.542;2022-11-12T09:15:34;8.55;;;1.60;;
46042;SDS011;32533;-33.854;18.542;2022-11-12T09:18:02;11.82;;;2.65;;
46042;SDS011;32533;-33.854;18.542;2022-11-12T09:20:31;6.60;;;1.80;;
46042;SDS011;32533;-33.854;18.542;2022-11-12T09:22:59;12.20;;;2.50;;
46042;SDS011;32533;-33.854;18.542;2022-11-12T09:25:37;8.43;;;2.85;;
46042;SDS011;32533;-33.854;18.542;2022-11-12T09:28:05;4.63;;;2.65;;
46042;SDS011;32533;-33.854;18.542;2022-11-12T09:30:42;7.18;;;2.45;;
46042;SDS011;32533;-33.854;18.542;2022-11-12T09:33:11;6.68;;;2.20;;
46042;SDS011;32533;-33.854;18.542;2022-11-12T09:38:11;4.00;;;1.50;;
46042;SDS011;32533;-33.854;18.542;2022-11-12T09:43:25;5.72;;;2.00;;
46042;SDS011;32533;-33.854;18.542;2022-11-12T09:49:05;8.93;;;2.08;;
46042;SDS011;32533;-33.854;18.542;2022-11-12T09:51:54;5.57;;;2.17;;
46042;SDS011;32533;-33.854;18.542;2022-11-12T09:54:27;11.27;;;3.10;;
46042;SDS011;32533;-33.854;18.542;2022-11-12T09:56:58;7.43;;;2.15;;
46042;SDS011;32533;-33.854;18.542;2022-11-12T09:59:31;8.27;;;3.72;;
46042;SDS011;32533;-33.854;18.542;2022-11-12T10:02:01;4.93;;;1.98;;
46042;SDS011;32533;-33.854;18.542;2022-11-12T10:10:17;5.43;;;1.95;;
46042;SDS011;32533;-33.854;18.542;2022-11-12T10:19:45;16.50;;;2.65;;
46042;SDS011;32533;-33.854;18.542;2022-11-12T10:22:20;4.38;;;1.42;;
46042;SDS011;32533;-33.854;18.542;2022-11-12T10:25:23;17.45;;;3.42;;
46042;SDS011;32533;-33.854;18.542;2022-11-12T10:27:50;6.30;;;2.13;;
46042;SDS011;32533;-33.854;18.542;2022-11-12T10:30:21;10.18;;;2.53;;
46042;SDS011;32533;-33.854;18.542;2022-11-12T10:32:49;7.53;;;2.25;;
46042;SDS011;32533;-33.854;18.542;2022-11-12T10:35:18;12.48;;;3.42;;
46042;SDS011;32533;-33.854;18.542;2022-11-12T10:37:50;9.27;;;2.00;;
46042;SDS011;32533;-33.854;18.542;2022-11-12T10:40:29;5.10;;;1.75;;
46042;SDS011;32533;-33.854;18.542;2022-11-12T10:43:35;11.88;;;2.60;;
46042;SDS011;32533;-33.854;18.542;2022-11-12T10:46:22;9.70;;;3.25;;
46042;SDS011;32533;-33.854;18.542;2022-11-12T10:48:57;13.27;;;3.15;;
46042;SDS011;32533;-33.854;18.542;2022-11-12T10:53:53;5.70;;;3.70;;
46042;SDS011;32533;-33.854;18.542;2022-11-12T10:56:24;14.98;;;3.25;;
46042;SDS011;32533;-33.854;18.542;2022-11-12T10:59:15;5.95;;;2.47;;
46042;SDS011;32533;-33.854;18.542;2022-11-12T11:01:42;6.30;;;2.35;;
46042;SDS011;32533;-33.854;18.542;2022-11-12T11:04:21;11.32;;;2.85;;
46042;SDS011;32533;-33.854;18.542;2022-11-12T11:07:04;13.85;;;5.03;;
46042;SDS011;32533;-33.854;18.542;2022-11-12T11:09:39;13.43;;;4.70;;
46042;SDS011;32533;-33.854;18.542;2022-11-12T11:12:21;11.65;;;3.67;;
46042;SDS011;32533;-33.854;18.542;2022-11-12T11:17:38;5.55;;;2.10;;
46042;SDS011;32533;-33.854;18.542;2022-11-12T11:20:09;8.00;;;2.38;;
46042;SDS011;32533;-33.854;18.542;2022-11-12T11:23:19;13.88;;;3.35;;
46042;SDS011;32533;-33.854;18.542;2022-11-12T11:25:50;9.02;;;3.05;;
46042;SDS011;32533;-33.854;18.542;2022-11-12T11:28:29;9.27;;;2.85;;
46042;SDS011;32533;-33.854;18.542;2022-11-12T11:31:12;9.67;;;2.70;;
46042;SDS011;32533;-33.854;18.542;2022-11-12T11:34:03;10.10;;;5.35;;
46042;SDS011;32533;-33.854;18.542;2022-11-12T11:44:37;7.70;;;2.38;;
46042;SDS011;32533;-33.854;18.542;2022-11-12T11:50:19;10.40;;;2.20;;
46042;SDS011;32533;-33.854;18.542;2022-11-12T11:58:38;12.77;;;4.05;;
46042;SDS011;32533;-33.854;18.542;2022-11-12T14:16:01;6.97;;;3.47;;
46042;SDS011;32533;-33.854;18.542;2022-11-12T14:18:58;7.53;;;2.50;;
46042;SDS011;32533;-33.854;18.542;2022-11-12T14:21:34;7.32;;;3.40;;
46042;SDS011;32533;-33.854;18.542;2022-11-12T14:24:01;7.00;;;2.55;;
46042;SDS011;32533;-33.854;18.542;2022-11-12T14:26:35;4.10;;;2.63;;
46042;SDS011;32533;-33.854;18.542;2022-11-12T14:29:03;5.30;;;2.03;;
46042;SDS011;32533;-33.854;18.542;2022-11-12T14:31:30;6.55;;;2.00;;
46042;SDS011;32533;-33.854;18.542;2022-11-12T14:34:42;4.85;;;2.25;;
46042;SDS011;32533;-33.854;18.542;2022-11-12T14:36:51;13.07;;;2.30;;
46042;SDS011;32533;-33.854;18.542;2022-11-12T14:39:20;6.90;;;2.03;;
46042;SDS011;32533;-33.854;18.542;2022-11-12T14:41:48;5.55;;;1.73;;
46042;SDS011;32533;-33.854;18.542;2022-11-12T14:44:17;3.72;;;1.48;;
46042;SDS011;32533;-33.854;18.542;2022-11-12T14:46:53;7.03;;;2.30;;
46042;SDS011;32533;-33.854;18.542;2022-11-12T14:49:33;6.85;;;2.58;;
46042;SDS011;32533;-33.854;18.542;2022-11-12T14:54:57;7.28;;;2.33;;
46042;SDS011;32533;-33.854;18.542;2022-11-12T14:57:28;9.50;;;3.40;;
46042;SDS011;32533;-33.854;18.542;2022-11-12T14:59:56;8.07;;;2.80;;
46042;SDS011;32533;-33.854;18.542;2022-11-12T15:02:27;4.97;;;1.67;;
46042;SDS011;32533;-33.854;18.542;2022-11-12T15:05:00;4.60;;;2.17;;
46042;SDS011;32533;-33.854;18.542;2022-11-12T15:07:56;4.20;;;2.45;;
46042;SDS011;32533;-33.854;18.542;2022-11-12T15:10:43;4.88;;;1.48;;
46042;SDS011;32533;-33.854;18.542;2022-11-12T15:13:11;15.57;;;3.88;;
46042;SDS011;32533;-33.854;18.542;2022-11-12T15:18:29;11.70;;;7.68;;
46042;SDS011;32533;-33.854;18.542;2022-11-12T15:23:44;13.10;;;6.93;;
46042;SDS011;32533;-33.854;18.542;2022-11-12T15:31:42;7.70;;;3.92;;
46042;SDS011;32533;-33.854;18.542;2022-11-12T15:37:10;4.80;;;1.80;;
46042;SDS011;32533;-33.854;18.542;2022-11-12T15:39:50;2.93;;;1.33;;
46042;SDS011;32533;-33.854;18.542;2022-11-12T15:42:37;5.55;;;2.22;;
46042;SDS011;32533;-33.854;18.542;2022-11-12T15:45:09;3.15;;;1.52;;
46042;SDS011;32533;-33.854;18.542;2022-11-12T15:47:40;6.07;;;1.63;;
46042;SDS011;32533;-33.854;18.542;2022-11-12T15:50:13;3.92;;;2.28;;
46042;SDS011;32533;-33.854;18.542;2022-11-12T15:52:42;5.68;;;1.80;;
46042;SDS011;32533;-33.854;18.542;2022-11-12T15:55:13;4.70;;;1.35;;
46042;SDS011;32533;-33.854;18.542;2022-11-12T15:57:40;2.83;;;1.10;;
46042;SDS011;32533;-33.854;18.542;2022-11-12T16:00:12;3.38;;;1.63;;
46042;SDS011;32533;-33.854;18.542;2022-11-12T16:02:41;6.95;;;2.05;;
46042;SDS011;32533;-33.854;18.542;2022-11-12T16:05:12;7.20;;;3.47;;
46042;SDS011;32533;-33.854;18.542;2022-11-12T16:07:39;5.95;;;2.42;;
46042;SDS011;32533;-33.854;18.542;2022-11-12T16:10:10;4.60;;;2.40;;
46042;SDS011;32533;-33.854;18.542;2022-11-12T16:12:39;3.83;;;2.20;;
46042;SDS011;32533;-33.854;18.542;2022-11-12T16:15:19;4.50;;;2.92;;
46042;SDS011;32533;-33.854;18.542;2022-11-12T16:17:50;6.75;;;3.20;;
46042;SDS011;32533;-33.854;18.542;2022-11-12T16:20:19;7.57;;;2.85;;
46042;SDS011;32533;-33.854;18.542;2022-11-12T16:22:47;4.97;;;2.78;;
46042;SDS011;32533;-33.854;18.542;2022-11-12T16:25:14;3.72;;;2.17;;
46042;SDS011;32533;-33.854;18.542;2022-11-12T16:27:41;4.63;;;2.28;;
46042;SDS011;32533;-33.854;18.542;2022-11-12T16:30:15;3.95;;;2.97;;
46042;SDS011;32533;-33.854;18.542;2022-11-12T16:32:43;2.67;;;1.48;;
46042;SDS011;32533;-33.854;18.542;2022-11-12T16:35:11;1.98;;;1.00;;
46042;SDS011;32533;-33.854;18.542;2022-11-12T16:37:38;6.55;;;2.33;;
46042;SDS011;32533;-33.854;18.542;2022-11-12T16:40:08;4.03;;;2.22;;
46042;SDS011;32533;-33.854;18.542;2022-11-12T16:42:38;5.10;;;2.38;;
46042;SDS011;32533;-33.854;18.542;2022-11-12T16:45:13;2.38;;;1.20;;
46042;SDS011;32533;-33.854;18.542;2022-11-12T16:47:42;10.93;;;2.50;;
46042;SDS011;32533;-33.854;18.542;2022-11-12T16:50:11;12.52;;;2.08;;
46042;SDS011;32533;-33.854;18.542;2022-11-12T16:52:39;10.75;;;3.25;;
46042;SDS011;32533;-33.854;18.542;2022-11-12T16:55:05;3.92;;;1.65;;
46042;SDS011;32533;-33.854;18.542;2022-11-12T16:57:32;7.15;;;1.80;;
46042;SDS011;32533;-33.854;18.542;2022-11-12T16:59:59;2.65;;;1.55;;
46042;SDS011;32533;-33.854;18.542;2022-11-12T17:02:26;14.40;;;9.02;;
46042;SDS011;32533;-33.854;18.542;2022-11-12T17:04:53;23.85;;;14.52;;
46042;SDS011;32533;-33.854;18.542;2022-11-12T17:07:19;12.60;;;8.10;;
46042;SDS011;32533;-33.854;18.542;2022-11-12T17:09:46;11.80;;;3.63;;
46042;SDS011;32533;-33.854;18.542;2022-11-12T17:12:12;6.50;;;2.22;;
46042;SDS011;32533;-33.854;18.542;2022-11-12T17:14:39;2.35;;;1.05;;
46042;SDS011;32533;-33.854;18.542;2022-11-12T17:17:05;4.93;;;1.65;;
46042;SDS011;32533;-33.854;18.542;2022-11-12T17:19:32;3.42;;;1.88;;
46042;SDS011;32533;-33.854;18.542;2022-11-12T17:21:58;4.80;;;2.33;;
46042;SDS011;32533;-33.854;18.542;2022-11-12T17:24:25;21.20;;;6.45;;
46042;SDS011;32533;-33.854;18.542;2022-11-12T17:26:53;6.30;;;2.70;;
46042;SDS011;32533;-33.854;18.542;2022-11-12T17:29:19;11.38;;;2.35;;
46042;SDS011;32533;-33.854;18.542;2022-11-12T17:31:46;5.95;;;2.10;;
46042;SDS011;32533;-33.854;18.542;2022-11-12T17:34:13;1.83;;;0.93;;
46042;SDS011;32533;-33.854;18.542;2022-11-12T17:36:40;2.70;;;0.98;;
46042;SDS011;32533;-33.854;18.542;2022-11-12T17:39:10;1.67;;;0.98;;
46042;SDS011;32533;-33.854;18.542;2022-11-12T17:41:37;2.80;;;1.58;;
46042;SDS011;32533;-33.854;18.542;2022-11-12T17:44:04;2.50;;;1.80;;
46042;SDS011;32533;-33.854;18.542;2022-11-12T17:46:30;5.93;;;1.40;;
46042;SDS011;32533;-33.854;18.542;2022-11-12T17:48:57;5.38;;;1.67;;
46042;SDS011;32533;-33.854;18.542;2022-11-12T17:51:25;3.92;;;2.67;;
46042;SDS011;32533;-33.854;18.542;2022-11-12T17:53:52;4.63;;;2.22;;
46042;SDS011;32533;-33.854;18.542;2022-11-12T17:56:21;4.90;;;2.13;;
46042;SDS011;32533;-33.854;18.542;2022-11-12T17:58:55;4.18;;;2.08;;
46042;SDS011;32533;-33.854;18.542;2022-11-12T18:01:27;4.60;;;2.47;;
46042;SDS011;32533;-33.854;18.542;2022-11-12T18:03:55;4.70;;;1.75;;
46042;SDS011;32533;-33.854;18.542;2022-11-12T18:06:26;3.80;;;1.48;;
46042;SDS011;32533;-33.854;18.542;2022-11-12T18:08:56;3.92;;;1.70;;
46042;SDS011;32533;-33.854;18.542;2022-11-12T18:11:25;9.25;;;2.05;;
46042;SDS011;32533;-33.854;18.542;2022-11-12T18:13:53;5.65;;;2.05;;
46042;SDS011;32533;-33.854;18.542;2022-11-12T18:16:21;2.95;;;1.30;;
46042;SDS011;32533;-33.854;18.542;2022-11-12T18:18:49;3.40;;;1.55;;
46042;SDS011;32533;-33.854;18.542;2022-11-12T18:21:16;4.53;;;1.50;;
46042;SDS011;32533;-33.854;18.542;2022-11-12T18:23:43;4.43;;;1.30;;
46042;SDS011;32533;-33.854;18.542;2022-11-12T18:26:13;10.23;;;2.20;;
46042;SDS011;32533;-33.854;18.542;2022-11-12T18:29:19;4.68;;;1.38;;
46042;SDS011;32533;-33.854;18.542;2022-11-12T18:31:46;4.40;;;1.25;;
46042;SDS011;32533;-33.854;18.542;2022-11-12T18:34:13;5.68;;;1.30;;
46042;SDS011;32533;-33.854;18.542;2022-11-12T18:36:40;17.05;;;3.35;;
46042;SDS011;32533;-33.854;18.542;2022-11-12T18:39:06;11.88;;;2.70;;
46042;SDS011;32533;-33.854;18.542;2022-11-12T18:41:33;21.02;;;4.78;;
46042;SDS011;32533;-33.854;18.542;2022-11-12T18:43:59;26.80;;;3.78;;
46042;SDS011;32533;-33.854;18.542;2022-11-12T18:46:26;14.68;;;2.47;;
46042;SDS011;32533;-33.854;18.542;2022-11-12T18:48:53;5.45;;;1.80;;
46042;SDS011;32533;-33.854;18.542;2022-11-12T18:51:19;5.88;;;2.05;;
46042;SDS011;32533;-33.854;18.542;2022-11-12T18:53:46;6.22;;;3.17;;
46042;SDS011;32533;-33.854;18.542;2022-11-12T18:56:13;9.40;;;2.20;;
46042;SDS011;32533;-33.854;18.542;2022-11-12T18:58:44;8.05;;;2.30;;
46042;SDS011;32533;-33.854;18.542;2022-11-12T19:01:16;28.20;;;4.53;;
46042;SDS011;32533;-33.854;18.542;2022-11-12T19:03:45;6.63;;;3.53;;
46042;SDS011;32533;-33.854;18.542;2022-11-12T19:06:13;24.73;;;4.63;;
46042;SDS011;32533;-33.854;18.542;2022-11-12T19:08:39;10.70;;;3.65;;
46042;SDS011;32533;-33.854;18.542;2022-11-12T19:11:07;12.80;;;4.22;;
46042;SDS011;32533;-33.854;18.542;2022-11-12T19:13:35;7.63;;;2.75;;
46042;SDS011;32533;-33.854;18.542;2022-11-12T19:16:06;5.47;;;1.58;;
46042;SDS011;32533;-33.854;18.542;2022-11-12T19:18:41;6.63;;;2.00;;
46042;SDS011;32533;-33.854;18.542;2022-11-12T19:21:09;8.10;;;2.05;;
46042;SDS011;32533;-33.854;18.542;2022-11-12T19:23:37;2.80;;;1.40;;
46042;SDS011;32533;-33.854;18.542;2022-11-12T19:26:06;6.35;;;1.63;;
46042;SDS011;32533;-33.854;18.542;2022-11-12T19:28:35;3.60;;;1.50;;
46042;SDS011;32533;-33.854;18.542;2022-11-12T19:31:02;4.90;;;1.90;;
46042;SDS011;32533;-33.854;18.542;2022-11-12T19:33:33;2.00;;;1.35;;
46042;SDS011;32533;-33.854;18.542;2022-11-12T19:36:02;5.97;;;2.50;;
46042;SDS011;32533;-33.854;18.542;2022-11-12T19:38:30;6.47;;;1.38;;
46042;SDS011;32533;-33.854;18.542;2022-11-12T19:41:03;7.68;;;2.83;;
46042;SDS011;32533;-33.854;18.542;2022-11-12T19:43:31;5.18;;;2.08;;
46042;SDS011;32533;-33.854;18.542;2022-11-12T19:45:58;9.52;;;2.20;;
46042;SDS011;32533;-33.854;18.542;2022-11-12T19:48:25;8.98;;;2.28;;
46042;SDS011;32533;-33.854;18.542;2022-11-12T19:51:03;5.88;;;2.50;;
46042;SDS011;32533;-33.854;18.542;2022-11-12T19:53:32;4.43;;;1.75;;
46042;SDS011;32533;-33.854;18.542;2022-11-12T19:56:05;6.05;;;1.23;;
46042;SDS011;32533;-33.854;18.542;2022-11-12T19:58:32;5.10;;;2.17;;
46042;SDS011;32533;-33.854;18.542;2022-11-12T20:01:09;4.53;;;1.80;;
46042;SDS011;32533;-33.854;18.542;2022-11-12T20:03:37;5.43;;;2.10;;
46042;SDS011;32533;-33.854;18.542;2022-11-12T20:06:05;9.15;;;2.72;;
46042;SDS011;32533;-33.854;18.542;2022-11-12T20:08:42;5.05;;;1.48;;
46042;SDS011;32533;-33.854;18.542;2022-11-12T20:11:09;9.38;;;1.92;;
46042;SDS011;32533;-33.854;18.542;2022-11-12T20:13:36;5.32;;;2.17;;
46042;SDS011;32533;-33.854;18.542;2022-11-12T20:16:21;8.15;;;2.40;;
46042;SDS011;32533;-33.854;18.542;2022-11-12T20:18:50;6.75;;;1.95;;
46042;SDS011;32533;-33.854;18.542;2022-11-12T20:21:21;11.45;;;2.45;;
46042;SDS011;32533;-33.854;18.542;2022-11-12T20:23:48;14.98;;;3.47;;
46042;SDS011;32533;-33.854;18.542;2022-11-12T20:26:14;6.72;;;2.15;;
46042;SDS011;32533;-33.854;18.542;2022-11-12T20:28:42;10.10;;;2.00;;
46042;SDS011;32533;-33.854;18.542;2022-11-12T20:31:12;4.82;;;1.63;;
46042;SDS011;32533;-33.854;18.542;2022-11-12T20:33:44;6.15;;;1.50;;
46042;SDS011;32533;-33.854;18.542;2022-11-12T20:36:18;7.50;;;2.33;;
46042;SDS011;32533;-33.854;18.542;2022-11-12T20:38:46;9.00;;;2.90;;